sensor_id;sensor_type;location;lat;lon;timestamp;pressure;altitude;pressure_sealevel;temperature;humidity
14885;BME280;7534;50.762;7.000;2023-04-12T00:01:57;87910.72;;;-143.16;46.49
14885;BME280;7534;50.762;7.000;2023-04-12T00:04:23;87880.44;;;-143.16;46.33
14885;BME280;7534;50.762;7.000;2023-04-12T00:06:51;87904.66;;;-143.16;46.79
14885;BME280;7534;50.762;7.000;2023-04-12T00:09:19;87947.06;;;-143.16;47.22
14885;BME280;7534;50.762;7.000;2023-04-12T00:11:45;87934.94;;;-143.16;47.86
14885;BME280;7534;50.762;7.000;2023-04-12T00:14:11;87981.38;;;-143.16;48.46
14885;BME280;7534;50.762;7.000;2023-04-12T00:16:37;87957.16;;;-143.16;48.44
14885;BME280;7534;50.762;7.000;2023-04-12T00:19:04;87973.28;;;-143.16;48.22
14885;BME280;7534;50.762;7.000;2023-04-12T00:21:30;87963.19;;;-143.16;48.16
14885;BME280;7534;50.762;7.000;2023-04-12T00:23:56;87959.16;;;-143.16;48.43
14885;BME280;7534;50.762;7.000;2023-04-12T00:26:22;87955.13;;;-143.16;48.34
14885;BME280;7534;50.762;7.000;2023-04-12T00:28:49;87941.00;;;-143.16;48.72
14885;BME280;7534;50.762;7.000;2023-04-12T00:31:15;87987.44;;;-143.16;49.77
14885;BME280;7534;50.762;7.000;2023-04-12T00:33:41;87961.19;;;-143.16;50.17
14885;BME280;7534;50.762;7.000;2023-04-12T00:36:07;88043.94;;;-143.16;50.01
14885;BME280;7534;50.762;7.000;2023-04-12T00:38:33;88007.59;;;-143.16;50.14
14885;BME280;7534;50.762;7.000;2023-04-12T00:40:59;88011.66;;;-143.16;50.17
14885;BME280;7534;50.762;7.000;2023-04-12T00:43:25;88050.00;;;-143.16;50.22
14885;BME280;7534;50.762;7.000;2023-04-12T00:45:53;88027.78;;;-143.16;50.19
14885;BME280;7534;50.762;7.000;2023-04-12T00:48:23;87979.34;;;-143.16;50.32
14885;BME280;7534;50.762;7.000;2023-04-12T00:50:49;88011.66;;;-143.16;50.57
14885;BME280;7534;50.762;7.000;2023-04-12T00:53:17;88015.69;;;-143.16;50.68
14885;BME280;7534;50.762;7.000;2023-04-12T00:55:44;88043.94;;;-143.16;50.61
14885;BME280;7534;50.762;7.000;2023-04-12T00:58:10;88037.88;;;-143.16;50.96
14885;BME280;7534;50.762;7.000;2023-04-12T01:00:36;88060.09;;;-143.16;50.80
14885;BME280;7534;50.762;7.000;2023-04-12T01:03:03;88039.91;;;-143.16;50.83
14885;BME280;7534;50.762;7.000;2023-04-12T01:05:39;88068.16;;;-143.16;50.88
14885;BME280;7534;50.762;7.000;2023-04-12T01:08:30;88043.94;;;-143.16;51.56
14885;BME280;7534;50.762;7.000;2023-04-12T01:11:20;88054.03;;;-143.16;51.90
14885;BME280;7534;50.762;7.000;2023-04-12T01:14:28;88062.13;;;-143.16;51.86
14885;BME280;7534;50.762;7.000;2023-04-12T01:17:04;88080.28;;;-143.16;52.10
14885;BME280;7534;50.762;7.000;2023-04-12T01:23:01;88078.25;;;-143.16;52.58
14885;BME280;7534;50.762;7.000;2023-04-12T01:26:10;88064.13;;;-143.16;53.12
14885;BME280;7534;50.762;7.000;2023-04-12T01:28:42;88108.53;;;-143.16;53.26
14885;BME280;7534;50.762;7.000;2023-04-12T01:31:09;88056.06;;;-143.16;53.49
14885;BME280;7534;50.762;7.000;2023-04-12T01:33:39;88078.25;;;-143.16;53.83
14885;BME280;7534;50.762;7.000;2023-04-12T01:36:15;88035.88;;;-143.16;54.26
14885;BME280;7534;50.762;7.000;2023-04-12T01:38:42;88084.31;;;-143.16;54.92
14885;BME280;7534;50.762;7.000;2023-04-12T01:41:09;88090.38;;;-143.16;55.28
14885;BME280;7534;50.762;7.000;2023-04-12T01:43:43;88068.16;;;-143.16;56.68
14885;BME280;7534;50.762;7.000;2023-04-12T01:46:11;88132.75;;;-143.16;57.04
14885;BME280;7534;50.762;7.000;2023-04-12T01:48:39;88159.00;;;-143.16;57.56
14885;BME280;7534;50.762;7.000;2023-04-12T01:51:53;88193.31;;;-143.16;58.25
14885;BME280;7534;50.762;7.000;2023-04-12T01:54:33;88154.97;;;-143.16;58.88
14885;BME280;7534;50.762;7.000;2023-04-12T01:57:03;88201.41;;;-143.16;59.92
14885;BME280;7534;50.762;7.000;2023-04-12T01:59:40;88203.41;;;-143.16;61.23
14885;BME280;7534;50.762;7.000;2023-04-12T02:02:07;88157.00;;;-143.16;61.52
14885;BME280;7534;50.762;7.000;2023-04-12T02:04:36;88253.88;;;-143.16;62.53
14885;BME280;7534;50.762;7.000;2023-04-12T02:07:02;88169.09;;;-143.16;63.38
14885;BME280;7534;50.762;7.000;2023-04-12T02:09:29;88189.28;;;-143.16;64.24
14885;BME280;7534;50.762;7.000;2023-04-12T02:11:55;88241.78;;;-143.16;65.27
14885;BME280;7534;50.762;7.000;2023-04-12T02:14:21;88225.63;;;-143.16;65.37
14885;BME280;7534;50.762;7.000;2023-04-12T02:16:47;88209.47;;;-143.16;66.21
14885;BME280;7534;50.762;7.000;2023-04-12T02:19:15;88207.44;;;-143.16;67.84
14885;BME280;7534;50.762;7.000;2023-04-12T02:21:43;88241.78;;;-143.16;68.87
14885;BME280;7534;50.762;7.000;2023-04-12T02:24:11;88280.13;;;-143.16;69.48
14885;BME280;7534;50.762;7.000;2023-04-12T02:26:37;88292.22;;;-143.16;70.48
14885;BME280;7534;50.762;7.000;2023-04-12T02:29:04;88290.22;;;-143.16;71.61
14885;BME280;7534;50.762;7.000;2023-04-12T02:31:36;88286.19;;;-143.16;72.53
14885;BME280;7534;50.762;7.000;2023-04-12T02:34:04;88266.00;;;-143.16;73.83
14885;BME280;7534;50.762;7.000;2023-04-12T02:36:30;88257.91;;;-143.16;74.96
14885;BME280;7534;50.762;7.000;2023-04-12T02:38:56;88278.09;;;-143.16;75.45
14885;BME280;7534;50.762;7.000;2023-04-12T02:41:23;88330.59;;;-143.16;75.62
14885;BME280;7534;50.762;7.000;2023-04-12T02:43:49;88274.06;;;-143.16;75.54
14885;BME280;7534;50.762;7.000;2023-04-12T02:46:20;88294.25;;;-143.16;76.18
14885;BME280;7534;50.762;7.000;2023-04-12T02:48:48;88302.34;;;-143.16;76.52
14885;BME280;7534;50.762;7.000;2023-04-12T02:51:14;88290.22;;;-143.16;76.47
14885;BME280;7534;50.762;7.000;2023-04-12T02:53:40;88324.53;;;-143.16;77.16
14885;BME280;7534;50.762;7.000;2023-04-12T02:56:06;88320.50;;;-143.16;77.52
14885;BME280;7534;50.762;7.000;2023-04-12T02:58:33;88300.31;;;-143.16;78.15
14885;BME280;7534;50.762;7.000;2023-04-12T03:01:02;88383.09;;;-143.16;79.18
14885;BME280;7534;50.762;7.000;2023-04-12T03:03:33;88314.44;;;-143.16;79.49
14885;BME280;7534;50.762;7.000;2023-04-12T03:05:58;88338.66;;;-143.16;79.59
14885;BME280;7534;50.762;7.000;2023-04-12T03:08:24;88348.75;;;-143.16;79.85
14885;BME280;7534;50.762;7.000;2023-04-12T03:10:50;88318.47;;;-143.16;80.05
14885;BME280;7534;50.762;7.000;2023-04-12T03:13:16;88334.63;;;-143.16;80.14
14885;BME280;7534;50.762;7.000;2023-04-12T03:15:41;88290.22;;;-143.16;79.52
14885;BME280;7534;50.762;7.000;2023-04-12T03:18:10;88342.72;;;-143.16;79.70
14885;BME280;7534;50.762;7.000;2023-04-12T03:20:36;88286.19;;;-143.16;80.13
14885;BME280;7534;50.762;7.000;2023-04-12T03:23:04;88395.19;;;-143.16;80.08
14885;BME280;7534;50.762;7.000;2023-04-12T03:25:29;88350.78;;;-143.16;80.36
14885;BME280;7534;50.762;7.000;2023-04-12T03:27:55;88332.63;;;-143.16;79.94
14885;BME280;7534;50.762;7.000;2023-04-12T03:30:21;88302.34;;;-143.16;80.71
14885;BME280;7534;50.762;7.000;2023-04-12T03:32:47;88358.84;;;-143.16;80.74
14885;BME280;7534;50.762;7.000;2023-04-12T03:35:12;88310.41;;;-143.16;80.42
14885;BME280;7534;50.762;7.000;2023-04-12T03:37:41;88350.78;;;-143.16;80.29
14885;BME280;7534;50.762;7.000;2023-04-12T03:40:07;88330.59;;;-143.16;80.30
14885;BME280;7534;50.762;7.000;2023-04-12T03:42:34;88395.19;;;-143.16;80.83
14885;BME280;7534;50.762;7.000;2023-04-12T03:45:00;88318.47;;;-143.16;80.97
14885;BME280;7534;50.762;7.000;2023-04-12T03:47:26;88324.53;;;-143.16;80.75
14885;BME280;7534;50.762;7.000;2023-04-12T03:49:55;88330.59;;;-143.16;79.38
14885;BME280;7534;50.762;7.000;2023-04-12T03:52:20;88314.44;;;-143.16;79.72
14885;BME280;7534;50.762;7.000;2023-04-12T03:54:46;88342.72;;;-143.16;80.21
14885;BME280;7534;50.762;7.000;2023-04-12T03:57:12;88348.75;;;-143.16;79.47
14885;BME280;7534;50.762;7.000;2023-04-12T03:59:38;88322.53;;;-143.16;79.57
14885;BME280;7534;50.762;7.000;2023-04-12T04:02:04;88346.75;;;-143.16;79.77
14885;BME280;7534;50.762;7.000;2023-04-12T04:04:30;88288.19;;;-143.16;79.77
14885;BME280;7534;50.762;7.000;2023-04-12T04:06:55;88364.91;;;-143.16;79.41
14885;BME280;7534;50.762;7.000;2023-04-12T04:09:21;88358.84;;;-143.16;79.95
14885;BME280;7534;50.762;7.000;2023-04-12T04:11:47;88362.91;;;-143.16;80.35
14885;BME280;7534;50.762;7.000;2023-04-12T04:14:14;88334.63;;;-143.16;80.20
14885;BME280;7534;50.762;7.000;2023-04-12T04:16:40;88302.34;;;-143.16;80.70
14885;BME280;7534;50.762;7.000;2023-04-12T04:19:05;88326.56;;;-143.16;81.33
14885;BME280;7534;50.762;7.000;2023-04-12T04:21:31;88336.66;;;-143.16;81.96
14885;BME280;7534;50.762;7.000;2023-04-12T04:24:00;88340.69;;;-143.16;81.71
14885;BME280;7534;50.762;7.000;2023-04-12T04:26:27;88322.53;;;-143.16;82.24
14885;BME280;7534;50.762;7.000;2023-04-12T04:28:59;88306.38;;;-143.16;82.29
14885;BME280;7534;50.762;7.000;2023-04-12T04:31:30;88366.94;;;-143.16;82.73
14885;BME280;7534;50.762;7.000;2023-04-12T04:34:05;88330.59;;;-143.16;83.01
14885;BME280;7534;50.762;7.000;2023-04-12T04:36:33;88360.88;;;-143.16;83.65
14885;BME280;7534;50.762;7.000;2023-04-12T04:39:00;88338.66;;;-143.16;83.96
14885;BME280;7534;50.762;7.000;2023-04-12T04:41:26;88344.72;;;-143.16;84.53
14885;BME280;7534;50.762;7.000;2023-04-12T04:43:52;88350.78;;;-143.16;84.87
14885;BME280;7534;50.762;7.000;2023-04-12T04:46:19;88362.91;;;-143.16;85.07
14885;BME280;7534;50.762;7.000;2023-04-12T04:48:49;88344.72;;;-143.16;85.10
14885;BME280;7534;50.762;7.000;2023-04-12T04:51:16;88362.91;;;-143.16;85.12
14885;BME280;7534;50.762;7.000;2023-04-12T04:53:42;88348.75;;;-143.16;85.56
14885;BME280;7534;50.762;7.000;2023-04-12T04:56:09;88348.75;;;-143.16;85.84
14885;BME280;7534;50.762;7.000;2023-04-12T04:58:35;88344.72;;;-143.16;86.18
14885;BME280;7534;50.762;7.000;2023-04-12T05:01:01;88385.09;;;-143.16;86.87
14885;BME280;7534;50.762;7.000;2023-04-12T05:03:28;88344.72;;;-143.16;87.17
14885;BME280;7534;50.762;7.000;2023-04-12T05:05:54;88370.97;;;-143.16;87.43
14885;BME280;7534;50.762;7.000;2023-04-12T05:08:22;88377.03;;;-143.16;87.54
14885;BME280;7534;50.762;7.000;2023-04-12T05:10:51;88302.34;;;-143.16;87.80
14885;BME280;7534;50.762;7.000;2023-04-12T05:13:18;88375.00;;;-143.16;88.16
14885;BME280;7534;50.762;7.000;2023-04-12T05:15:44;88377.03;;;-143.16;88.21
14885;BME280;7534;50.762;7.000;2023-04-12T05:18:09;88368.94;;;-143.16;88.48
14885;BME280;7534;50.762;7.000;2023-04-12T05:20:37;88336.66;;;-143.16;88.89
14885;BME280;7534;50.762;7.000;2023-04-12T05:23:03;88399.22;;;-143.16;89.09
14885;BME280;7534;50.762;7.000;2023-04-12T05:25:29;88375.00;;;-143.16;89.27
14885;BME280;7534;50.762;7.000;2023-04-12T05:27:55;88342.72;;;-143.16;89.56
14885;BME280;7534;50.762;7.000;2023-04-12T05:30:21;88373.00;;;-143.16;89.61
14885;BME280;7534;50.762;7.000;2023-04-12T05:32:46;88403.28;;;-143.16;89.71
14885;BME280;7534;50.762;7.000;2023-04-12T05:35:12;88362.91;;;-143.16;90.17
14885;BME280;7534;50.762;7.000;2023-04-12T05:37:38;88383.09;;;-143.16;90.52
14885;BME280;7534;50.762;7.000;2023-04-12T05:40:04;88370.97;;;-143.16;90.69
14885;BME280;7534;50.762;7.000;2023-04-12T05:42:31;88415.38;;;-143.16;90.87
14885;BME280;7534;50.762;7.000;2023-04-12T05:44:57;88375.00;;;-143.16;90.89
14885;BME280;7534;50.762;7.000;2023-04-12T05:47:23;88373.00;;;-143.16;91.29
14885;BME280;7534;50.762;7.000;2023-04-12T05:49:49;88395.19;;;-143.16;91.14
14885;BME280;7534;50.762;7.000;2023-04-12T05:52:14;88399.22;;;-143.16;91.58
14885;BME280;7534;50.762;7.000;2023-04-12T05:54:40;88350.78;;;-143.16;91.61
14885;BME280;7534;50.762;7.000;2023-04-12T05:57:06;88433.56;;;-143.16;91.52
14885;BME280;7534;50.762;7.000;2023-04-12T05:59:32;88370.97;;;-143.16;91.78
14885;BME280;7534;50.762;7.000;2023-04-12T06:01:57;88401.25;;;-143.16;91.84
14885;BME280;7534;50.762;7.000;2023-04-12T06:04:24;88391.16;;;-143.16;91.75
14885;BME280;7534;50.762;7.000;2023-04-12T06:06:53;88364.91;;;-143.16;92.20
14885;BME280;7534;50.762;7.000;2023-04-12T06:09:20;88379.03;;;-143.16;92.36
14885;BME280;7534;50.762;7.000;2023-04-12T06:11:46;88387.13;;;-143.16;92.45
14885;BME280;7534;50.762;7.000;2023-04-12T06:14:12;88443.66;;;-143.16;92.44
14885;BME280;7534;50.762;7.000;2023-04-12T06:16:38;88354.81;;;-143.16;92.60
14885;BME280;7534;50.762;7.000;2023-04-12T06:19:03;88340.69;;;-143.16;92.56
14885;BME280;7534;50.762;7.000;2023-04-12T06:21:29;88352.81;;;-143.16;92.61
14885;BME280;7534;50.762;7.000;2023-04-12T06:23:55;88326.56;;;-143.16;92.61
14885;BME280;7534;50.762;7.000;2023-04-12T06:26:21;88334.63;;;-143.16;92.71
14885;BME280;7534;50.762;7.000;2023-04-12T06:28:47;88370.97;;;-143.16;92.36
14885;BME280;7534;50.762;7.000;2023-04-12T06:31:14;88346.75;;;-143.16;92.59
14885;BME280;7534;50.762;7.000;2023-04-12T06:33:41;88344.72;;;-143.16;92.48
14885;BME280;7534;50.762;7.000;2023-04-12T06:36:07;88346.75;;;-143.16;92.21
14885;BME280;7534;50.762;7.000;2023-04-12T06:38:33;88330.59;;;-143.16;92.28
14885;BME280;7534;50.762;7.000;2023-04-12T06:40:59;88364.91;;;-143.16;92.58
14885;BME280;7534;50.762;7.000;2023-04-12T06:43:25;88332.63;;;-143.16;92.49
14885;BME280;7534;50.762;7.000;2023-04-12T06:45:51;88310.41;;;-143.16;92.48
14885;BME280;7534;50.762;7.000;2023-04-12T06:48:19;88314.44;;;-143.16;92.08
14885;BME280;7534;50.762;7.000;2023-04-12T06:50:45;88338.66;;;-143.16;92.04
14885;BME280;7534;50.762;7.000;2023-04-12T06:53:11;88330.59;;;-143.16;92.21
14885;BME280;7534;50.762;7.000;2023-04-12T06:55:38;88354.81;;;-143.16;92.14
14885;BME280;7534;50.762;7.000;2023-04-12T06:58:06;88312.44;;;-143.16;92.05
14885;BME280;7534;50.762;7.000;2023-04-12T07:00:31;88336.66;;;-143.16;91.96
14885;BME280;7534;50.762;7.000;2023-04-12T07:02:57;88314.44;;;-143.16;91.99
14885;BME280;7534;50.762;7.000;2023-04-12T07:05:23;88312.44;;;-143.16;91.91
14885;BME280;7534;50.762;7.000;2023-04-12T07:07:48;88306.38;;;-143.16;92.10
14885;BME280;7534;50.762;7.000;2023-04-12T07:10:14;88276.09;;;-143.16;92.12
14885;BME280;7534;50.762;7.000;2023-04-12T07:12:40;88282.16;;;-143.16;91.74
14885;BME280;7534;50.762;7.000;2023-04-12T07:15:07;88302.34;;;-143.16;91.73
14885;BME280;7534;50.762;7.000;2023-04-12T07:17:33;88257.91;;;-143.16;92.09
14885;BME280;7534;50.762;7.000;2023-04-12T07:19:59;88274.06;;;-143.16;91.94
14885;BME280;7534;50.762;7.000;2023-04-12T07:22:25;88272.06;;;-143.16;91.25
14885;BME280;7534;50.762;7.000;2023-04-12T07:24:53;88261.97;;;-143.16;90.89
14885;BME280;7534;50.762;7.000;2023-04-12T07:27:19;88241.78;;;-143.16;90.91
14885;BME280;7534;50.762;7.000;2023-04-12T07:29:45;88241.78;;;-143.16;90.72
14885;BME280;7534;50.762;7.000;2023-04-12T07:32:11;88298.28;;;-143.16;90.52
14885;BME280;7534;50.762;7.000;2023-04-12T07:34:37;88237.72;;;-143.16;91.07
14885;BME280;7534;50.762;7.000;2023-04-12T07:37:04;88282.16;;;-143.16;91.34
14885;BME280;7534;50.762;7.000;2023-04-12T07:39:29;88259.94;;;-143.16;91.57
14885;BME280;7534;50.762;7.000;2023-04-12T07:41:56;88237.72;;;-143.16;91.51
14885;BME280;7534;50.762;7.000;2023-04-12T07:44:22;88223.59;;;-143.16;91.50
14885;BME280;7534;50.762;7.000;2023-04-12T07:46:47;88209.47;;;-143.16;91.32
14885;BME280;7534;50.762;7.000;2023-04-12T07:49:13;88237.72;;;-143.16;91.43
14885;BME280;7534;50.762;7.000;2023-04-12T07:51:38;88185.25;;;-143.16;91.18
14885;BME280;7534;50.762;7.000;2023-04-12T07:54:05;88209.47;;;-143.16;91.13
14885;BME280;7534;50.762;7.000;2023-04-12T07:56:34;88205.44;;;-143.16;90.16
14885;BME280;7534;50.762;7.000;2023-04-12T07:59:00;88199.38;;;-143.16;90.02
14885;BME280;7534;50.762;7.000;2023-04-12T08:01:26;88195.34;;;-143.16;90.18
14885;BME280;7534;50.762;7.000;2023-04-12T08:03:53;88209.47;;;-143.16;89.58
14885;BME280;7534;50.762;7.000;2023-04-12T08:06:18;88215.53;;;-143.16;90.28
14885;BME280;7534;50.762;7.000;2023-04-12T08:08:44;88217.53;;;-143.16;90.59
14885;BME280;7534;50.762;7.000;2023-04-12T08:11:10;88169.09;;;-143.16;90.64
14885;BME280;7534;50.762;7.000;2023-04-12T08:13:36;88152.94;;;-143.16;90.26
14885;BME280;7534;50.762;7.000;2023-04-12T08:16:02;88213.50;;;-143.16;89.65
14885;BME280;7534;50.762;7.000;2023-04-12T08:18:28;88181.22;;;-143.16;89.32
14885;BME280;7534;50.762;7.000;2023-04-12T08:20:57;88173.13;;;-143.16;89.37
14885;BME280;7534;50.762;7.000;2023-04-12T08:23:24;88181.22;;;-143.16;89.47
14885;BME280;7534;50.762;7.000;2023-04-12T08:25:51;88167.06;;;-143.16;89.58
14885;BME280;7534;50.762;7.000;2023-04-12T08:28:17;88169.09;;;-143.16;88.76
14885;BME280;7534;50.762;7.000;2023-04-12T08:30:43;88173.13;;;-143.16;88.64
14885;BME280;7534;50.762;7.000;2023-04-12T08:33:09;88150.94;;;-143.16;88.81
14885;BME280;7534;50.762;7.000;2023-04-12T08:35:35;88104.50;;;-143.16;89.68
14885;BME280;7534;50.762;7.000;2023-04-12T08:38:01;88114.59;;;-143.16;89.20
14885;BME280;7534;50.762;7.000;2023-04-12T08:40:32;88052.00;;;-143.16;88.57
14885;BME280;7534;50.762;7.000;2023-04-12T08:43:00;88068.16;;;-143.16;88.04
14885;BME280;7534;50.762;7.000;2023-04-12T08:45:28;88104.50;;;-143.16;87.07
14885;BME280;7534;50.762;7.000;2023-04-12T08:47:58;88092.38;;;-143.16;87.41
14885;BME280;7534;50.762;7.000;2023-04-12T08:50:25;88104.50;;;-143.16;87.68
14885;BME280;7534;50.762;7.000;2023-04-12T08:52:53;88054.03;;;-143.16;87.30
14885;BME280;7534;50.762;7.000;2023-04-12T08:55:18;88088.34;;;-143.16;87.72
14885;BME280;7534;50.762;7.000;2023-04-12T08:57:44;88025.78;;;-143.16;87.63
14885;BME280;7534;50.762;7.000;2023-04-12T09:00:13;88005.59;;;-143.16;87.41
14885;BME280;7534;50.762;7.000;2023-04-12T09:02:41;87955.13;;;-143.16;86.72
14885;BME280;7534;50.762;7.000;2023-04-12T09:05:10;87947.06;;;-143.16;86.68
14885;BME280;7534;50.762;7.000;2023-04-12T09:07:37;87910.72;;;-143.16;83.49
14885;BME280;7534;50.762;7.000;2023-04-12T09:10:03;87890.53;;;-143.16;82.46
14885;BME280;7534;50.762;7.000;2023-04-12T09:12:30;87906.69;;;-143.16;80.54
14885;BME280;7534;50.762;7.000;2023-04-12T09:15:11;87904.66;;;-143.16;78.93
14885;BME280;7534;50.762;7.000;2023-04-12T09:17:39;87912.75;;;-143.16;81.13
14885;BME280;7534;50.762;7.000;2023-04-12T09:22:44;87823.91;;;-143.16;78.46
14885;BME280;7534;50.762;7.000;2023-04-12T09:25:14;87844.09;;;-143.16;77.66
14885;BME280;7534;50.762;7.000;2023-04-12T09:27:48;87753.28;;;-143.16;79.31
14885;BME280;7534;50.762;7.000;2023-04-12T09:30:16;87710.91;;;-143.16;76.97
14885;BME280;7534;50.762;7.000;2023-04-12T09:32:43;87775.47;;;-143.16;73.81
14885;BME280;7534;50.762;7.000;2023-04-12T09:35:09;87797.69;;;-143.16;74.33
14885;BME280;7534;50.762;7.000;2023-04-12T09:37:35;87811.81;;;-143.16;75.30
14885;BME280;7534;50.762;7.000;2023-04-12T09:40:04;87829.97;;;-143.16;75.18
14885;BME280;7534;50.762;7.000;2023-04-12T09:42:33;87860.25;;;-143.16;76.03
14885;BME280;7534;50.762;7.000;2023-04-12T09:45:18;87868.34;;;-143.16;76.20
14885;BME280;7534;50.762;7.000;2023-04-12T09:47:44;87829.97;;;-143.16;75.79
14885;BME280;7534;50.762;7.000;2023-04-12T09:50:33;87902.66;;;-143.16;76.79
14885;BME280;7534;50.762;7.000;2023-04-12T09:53:15;87916.78;;;-143.16;77.60
14885;BME280;7534;50.762;7.000;2023-04-12T09:55:47;87898.59;;;-143.16;78.53
14885;BME280;7534;50.762;7.000;2023-04-12T09:58:18;87918.78;;;-143.16;78.72
14885;BME280;7534;50.762;7.000;2023-04-12T10:00:46;87876.41;;;-143.16;79.85
14885;BME280;7534;50.762;7.000;2023-04-12T10:03:15;87834.03;;;-143.16;80.01
14885;BME280;7534;50.762;7.000;2023-04-12T10:05:42;87825.94;;;-143.16;79.88
14885;BME280;7534;50.762;7.000;2023-04-12T10:08:11;87848.16;;;-143.16;79.66
14885;BME280;7534;50.762;7.000;2023-04-12T10:10:37;87757.31;;;-143.16;80.60
14885;BME280;7534;50.762;7.000;2023-04-12T10:13:05;87745.22;;;-143.16;82.16
14885;BME280;7534;50.762;7.000;2023-04-12T10:15:33;87638.22;;;-143.16;82.29
14885;BME280;7534;50.762;7.000;2023-04-12T10:18:01;87543.38;;;-143.16;80.14
14885;BME280;7534;50.762;7.000;2023-04-12T10:20:27;87513.09;;;-143.16;79.51
14885;BME280;7534;50.762;7.000;2023-04-12T10:22:53;87509.06;;;-143.16;77.20
14885;BME280;7534;50.762;7.000;2023-04-12T10:25:22;87472.72;;;-143.16;76.99
14885;BME280;7534;50.762;7.000;2023-04-12T10:27:50;87341.53;;;-143.16;76.35
14885;BME280;7534;50.762;7.000;2023-04-12T10:30:23;87260.81;;;-143.16;74.37
14885;BME280;7534;50.762;7.000;2023-04-12T10:35:59;87174.03;;;-143.16;67.19
14885;BME280;7534;50.762;7.000;2023-04-12T10:39:07;87155.88;;;-143.16;63.11
14885;BME280;7534;50.762;7.000;2023-04-12T10:41:33;87133.69;;;-143.16;61.37
14885;BME280;7534;50.762;7.000;2023-04-12T10:44:23;87103.41;;;-143.16;57.00
14885;BME280;7534;50.762;7.000;2023-04-12T10:46:52;87079.19;;;-143.16;53.82
14885;BME280;7534;50.762;7.000;2023-04-12T10:49:19;87228.53;;;-143.16;53.96
14885;BME280;7534;50.762;7.000;2023-04-12T10:52:17;87438.41;;;-143.16;54.65
14885;BME280;7534;50.762;7.000;2023-04-12T10:54:43;87525.22;;;-143.16;56.09
14885;BME280;7534;50.762;7.000;2023-04-12T10:57:44;87763.38;;;-143.16;59.60
14885;BME280;7534;50.762;7.000;2023-04-12T11:00:12;87801.72;;;-143.16;62.11
14885;BME280;7534;50.762;7.000;2023-04-12T11:03:05;87860.25;;;-143.16;65.26
14885;BME280;7534;50.762;7.000;2023-04-12T11:05:56;87947.06;;;-143.16;67.47
14885;BME280;7534;50.762;7.000;2023-04-12T11:08:22;87951.09;;;-143.16;69.76
14885;BME280;7534;50.762;7.000;2023-04-12T11:10:49;88035.88;;;-143.16;70.96
14885;BME280;7534;50.762;7.000;2023-04-12T11:13:15;87961.19;;;-143.16;72.46
14885;BME280;7534;50.762;7.000;2023-04-12T11:15:42;87963.19;;;-143.16;73.34
14885;BME280;7534;50.762;7.000;2023-04-12T11:18:09;87975.31;;;-143.16;73.61
14885;BME280;7534;50.762;7.000;2023-04-12T11:20:38;87987.44;;;-143.16;73.74
14885;BME280;7534;50.762;7.000;2023-04-12T11:23:06;87977.31;;;-143.16;72.85
14885;BME280;7534;50.762;7.000;2023-04-12T11:25:33;87878.41;;;-143.16;73.82
14885;BME280;7534;50.762;7.000;2023-04-12T11:27:59;87733.09;;;-143.16;66.58
14885;BME280;7534;50.762;7.000;2023-04-12T11:30:25;87640.25;;;-143.16;65.91
14885;BME280;7534;50.762;7.000;2023-04-12T11:32:52;87587.78;;;-143.16;60.06
14885;BME280;7534;50.762;7.000;2023-04-12T11:35:18;87519.16;;;-143.16;57.80
14885;BME280;7534;50.762;7.000;2023-04-12T11:37:48;87547.41;;;-143.16;56.80
14885;BME280;7534;50.762;7.000;2023-04-12T11:40:15;87567.59;;;-143.16;55.84
14885;BME280;7534;50.762;7.000;2023-04-12T11:42:41;87494.94;;;-143.16;54.19
14885;BME280;7534;50.762;7.000;2023-04-12T11:45:08;87430.34;;;-143.16;53.97
14885;BME280;7534;50.762;7.000;2023-04-12T11:47:41;87351.63;;;-143.16;53.74
14885;BME280;7534;50.762;7.000;2023-04-12T11:50:08;87327.41;;;-143.16;51.54
14885;BME280;7534;50.762;7.000;2023-04-12T11:52:35;87412.19;;;-143.16;51.78
14885;BME280;7534;50.762;7.000;2023-04-12T11:55:04;87389.97;;;-143.16;51.88
14885;BME280;7534;50.762;7.000;2023-04-12T11:57:38;87492.91;;;-143.16;51.12
14885;BME280;7534;50.762;7.000;2023-04-12T12:00:06;87398.06;;;-143.16;52.91
14885;BME280;7534;50.762;7.000;2023-04-12T12:02:33;87432.38;;;-143.16;52.81
14885;BME280;7534;50.762;7.000;2023-04-12T12:05:00;87369.81;;;-143.16;52.62
14885;BME280;7534;50.762;7.000;2023-04-12T12:07:27;87353.66;;;-143.16;51.47
14885;BME280;7534;50.762;7.000;2023-04-12T12:09:54;87309.25;;;-143.16;51.48
14885;BME280;7534;50.762;7.000;2023-04-12T12:12:23;87260.81;;;-143.16;49.28
14885;BME280;7534;50.762;7.000;2023-04-12T12:14:48;87174.03;;;-143.16;49.57
14885;BME280;7534;50.762;7.000;2023-04-12T12:17:15;87099.38;;;-143.16;47.23
14885;BME280;7534;50.762;7.000;2023-04-12T12:19:45;87030.75;;;-143.16;47.97
14885;BME280;7534;50.762;7.000;2023-04-12T12:22:20;87014.63;;;-143.16;43.82
14885;BME280;7534;50.762;7.000;2023-04-12T12:24:54;87079.19;;;-143.16;43.43
14885;BME280;7534;50.762;7.000;2023-04-12T12:29:54;87075.16;;;-143.16;43.92
14885;BME280;7534;50.762;7.000;2023-04-12T12:32:22;86978.28;;;-143.16;43.74
14885;BME280;7534;50.762;7.000;2023-04-12T12:34:59;86952.06;;;-143.16;42.83
14885;BME280;7534;50.762;7.000;2023-04-12T12:37:29;86893.53;;;-143.16;43.35
14885;BME280;7534;50.762;7.000;2023-04-12T12:40:10;86919.78;;;-143.16;41.37
14885;BME280;7534;50.762;7.000;2023-04-12T12:42:50;86919.78;;;-143.16;40.93
14885;BME280;7534;50.762;7.000;2023-04-12T12:45:20;86933.91;;;-143.16;41.98
14885;BME280;7534;50.762;7.000;2023-04-12T12:47:52;87020.69;;;-143.16;41.87
14885;BME280;7534;50.762;7.000;2023-04-12T12:50:22;87040.84;;;-143.16;41.49
14885;BME280;7534;50.762;7.000;2023-04-12T12:52:49;87071.13;;;-143.16;43.39
14885;BME280;7534;50.762;7.000;2023-04-12T12:55:16;87123.59;;;-143.16;43.02
14885;BME280;7534;50.762;7.000;2023-04-12T12:57:44;87143.78;;;-143.16;42.50
14885;BME280;7534;50.762;7.000;2023-04-12T13:00:12;87133.69;;;-143.16;43.38
14885;BME280;7534;50.762;7.000;2023-04-12T13:02:42;87079.19;;;-143.16;43.29
14885;BME280;7534;50.762;7.000;2023-04-12T13:05:10;87107.44;;;-143.16;43.58
14885;BME280;7534;50.762;7.000;2023-04-12T13:07:37;87145.78;;;-143.16;41.93
14885;BME280;7534;50.762;7.000;2023-04-12T13:10:05;87174.03;;;-143.16;42.45